sensor_id;sensor_type;location;lat;lon;timestamp;P1;durP1;ratioP1;P2;durP2;ratioP2
80257;SDS011;69565;37.974;23.708;2023-06-04T00:00:10;1.92;;;1.33;;
80257;SDS011;69565;37.974;23.708;2023-06-04T00:02:36;5.40;;;1.40;;
80257;SDS011;69565;37.974;23.708;2023-06-04T00:05:01;1.83;;;1.35;;
80257;SDS011;69565;37.974;23.708;2023-06-04T00:07:27;3.13;;;1.33;;
80257;SDS011;69565;37.974;23.708;2023-06-04T00:09:53;2.53;;;1.40;;
80257;SDS011;69565;37.974;23.708;2023-06-04T00:12:19;5.28;;;1.25;;
80257;SDS011;69565;37.974;23.708;2023-06-04T00:14:45;3.65;;;1.48;;
80257;SDS011;69565;37.974;23.708;2023-06-04T00:17:11;3.22;;;1.50;;
80257;SDS011;69565;37.974;23.708;2023-06-04T00:19:40;4.35;;;1.50;;
80257;SDS011;69565;37.974;23.708;2023-06-04T00:22:05;5.38;;;1.40;;
80257;SDS011;69565;37.974;23.708;2023-06-04T00:24:31;4.07;;;1.20;;
80257;SDS011;69565;37.974;23.708;2023-06-04T00:26:57;10.90;;;1.80;;
80257;SDS011;69565;37.974;23.708;2023-06-04T00:29:23;5.68;;;1.30;;
80257;SDS011;69565;37.974;23.708;2023-06-04T00:31:49;4.05;;;1.52;;
80257;SDS011;69565;37.974;23.708;2023-06-04T00:36:42;4.80;;;1.60;;
80257;SDS011;69565;37.974;23.708;2023-06-04T00:39:08;5.88;;;1.80;;
80257;SDS011;69565;37.974;23.708;2023-06-04T00:41:34;6.20;;;1.55;;
80257;SDS011;69565;37.974;23.708;2023-06-04T00:44:00;3.58;;;1.75;;
80257;SDS011;69565;37.974;23.708;2023-06-04T00:46:27;3.08;;;1.30;;
80257;SDS011;69565;37.974;23.708;2023-06-04T00:48:54;2.67;;;1.50;;
80257;SDS011;69565;37.974;23.708;2023-06-04T00:51:20;4.57;;;1.30;;
80257;SDS011;69565;37.974;23.708;2023-06-04T00:53:48;2.47;;;1.25;;
80257;SDS011;69565;37.974;23.708;2023-06-04T00:56:15;8.20;;;1.52;;
80257;SDS011;69565;37.974;23.708;2023-06-04T00:58:41;4.65;;;1.60;;
80257;SDS011;69565;37.974;23.708;2023-06-04T01:01:10;3.40;;;1.60;;
80257;SDS011;69565;37.974;23.708;2023-06-04T01:03:45;4.03;;;1.38;;
80257;SDS011;69565;37.974;23.708;2023-06-04T01:08:55;3.17;;;1.58;;
80257;SDS011;69565;37.974;23.708;2023-06-04T01:11:33;4.47;;;1.50;;
80257;SDS011;69565;37.974;23.708;2023-06-04T01:14:01;5.43;;;1.60;;
80257;SDS011;69565;37.974;23.708;2023-06-04T01:16:28;2.83;;;1.30;;
80257;SDS011;69565;37.974;23.708;2023-06-04T01:19:00;4.28;;;1.70;;
80257;SDS011;69565;37.974;23.708;2023-06-04T01:21:29;3.92;;;1.50;;
80257;SDS011;69565;37.974;23.708;2023-06-04T01:24:00;6.95;;;1.50;;
80257;SDS011;69565;37.974;23.708;2023-06-04T01:26:30;5.00;;;1.52;;
80257;SDS011;69565;37.974;23.708;2023-06-04T01:28:57;4.47;;;1.30;;
80257;SDS011;69565;37.974;23.708;2023-06-04T01:31:24;6.57;;;1.67;;
80257;SDS011;69565;37.974;23.708;2023-06-04T01:33:54;8.20;;;1.52;;
80257;SDS011;69565;37.974;23.708;2023-06-04T01:36:24;4.80;;;1.50;;
80257;SDS011;69565;37.974;23.708;2023-06-04T01:38:50;9.95;;;1.92;;
80257;SDS011;69565;37.974;23.708;2023-06-04T01:41:16;9.90;;;1.60;;
80257;SDS011;69565;37.974;23.708;2023-06-04T01:43:42;4.60;;;1.67;;
80257;SDS011;69565;37.974;23.708;2023-06-04T01:46:08;4.90;;;1.50;;
80257;SDS011;69565;37.974;23.708;2023-06-04T01:48:34;3.45;;;1.80;;
80257;SDS011;69565;37.974;23.708;2023-06-04T01:51:00;5.57;;;1.50;;
80257;SDS011;69565;37.974;23.708;2023-06-04T01:53:26;5.43;;;2.15;;
80257;SDS011;69565;37.974;23.708;2023-06-04T01:55:51;5.57;;;1.75;;
80257;SDS011;69565;37.974;23.708;2023-06-04T01:58:17;3.42;;;1.70;;
80257;SDS011;69565;37.974;23.708;2023-06-04T02:00:52;8.68;;;2.00;;
80257;SDS011;69565;37.974;23.708;2023-06-04T02:03:19;3.63;;;1.70;;
80257;SDS011;69565;37.974;23.708;2023-06-04T02:05:46;4.93;;;1.60;;
80257;SDS011;69565;37.974;23.708;2023-06-04T02:08:17;6.90;;;2.00;;
80257;SDS011;69565;37.974;23.708;2023-06-04T02:10:47;8.15;;;1.92;;
80257;SDS011;69565;37.974;23.708;2023-06-04T02:13:13;4.65;;;1.98;;
80257;SDS011;69565;37.974;23.708;2023-06-04T02:15:40;4.60;;;1.92;;
80257;SDS011;69565;37.974;23.708;2023-06-04T02:18:13;3.78;;;1.70;;
80257;SDS011;69565;37.974;23.708;2023-06-04T02:20:42;2.13;;;1.83;;
80257;SDS011;69565;37.974;23.708;2023-06-04T02:23:11;6.38;;;1.70;;
80257;SDS011;69565;37.974;23.708;2023-06-04T02:25:37;8.25;;;1.67;;
80257;SDS011;69565;37.974;23.708;2023-06-04T02:28:03;7.07;;;1.48;;
80257;SDS011;69565;37.974;23.708;2023-06-04T02:30:29;5.80;;;1.45;;
80257;SDS011;69565;37.974;23.708;2023-06-04T02:32:55;4.20;;;1.70;;
80257;SDS011;69565;37.974;23.708;2023-06-04T02:35:21;6.43;;;1.50;;
80257;SDS011;69565;37.974;23.708;2023-06-04T02:37:51;6.65;;;1.30;;
80257;SDS011;69565;37.974;23.708;2023-06-04T02:40:17;2.45;;;1.40;;
80257;SDS011;69565;37.974;23.708;2023-06-04T02:42:42;5.80;;;1.48;;
80257;SDS011;69565;37.974;23.708;2023-06-04T02:45:09;7.15;;;1.35;;
80257;SDS011;69565;37.974;23.708;2023-06-04T02:47:35;6.70;;;1.40;;
80257;SDS011;69565;37.974;23.708;2023-06-04T02:50:01;2.47;;;1.30;;
80257;SDS011;69565;37.974;23.708;2023-06-04T02:52:28;1.83;;;1.20;;
80257;SDS011;69565;37.974;23.708;2023-06-04T02:54:55;3.15;;;1.10;;
80257;SDS011;69565;37.974;23.708;2023-06-04T02:57:22;4.72;;;1.40;;
80257;SDS011;69565;37.974;23.708;2023-06-04T02:59:48;3.03;;;1.30;;
80257;SDS011;69565;37.974;23.708;2023-06-04T03:02:13;2.72;;;1.40;;
80257;SDS011;69565;37.974;23.708;2023-06-04T03:04:40;6.18;;;1.30;;
80257;SDS011;69565;37.974;23.708;2023-06-04T03:07:07;4.75;;;1.38;;
80257;SDS011;69565;37.974;23.708;2023-06-04T03:09:36;3.55;;;1.48;;
80257;SDS011;69565;37.974;23.708;2023-06-04T03:12:02;2.10;;;1.20;;
80257;SDS011;69565;37.974;23.708;2023-06-04T03:14:28;4.90;;;1.50;;
80257;SDS011;69565;37.974;23.708;2023-06-04T03:17:01;6.20;;;1.30;;
80257;SDS011;69565;37.974;23.708;2023-06-04T03:19:37;4.18;;;1.60;;
80257;SDS011;69565;37.974;23.708;2023-06-04T03:22:03;3.70;;;1.50;;
80257;SDS011;69565;37.974;23.708;2023-06-04T03:24:33;9.18;;;1.58;;
80257;SDS011;69565;37.974;23.708;2023-06-04T03:27:00;9.27;;;1.40;;
80257;SDS011;69565;37.974;23.708;2023-06-04T03:29:26;3.60;;;1.60;;
80257;SDS011;69565;37.974;23.708;2023-06-04T03:31:52;3.83;;;1.40;;
80257;SDS011;69565;37.974;23.708;2023-06-04T03:34:19;7.25;;;1.52;;
80257;SDS011;69565;37.974;23.708;2023-06-04T03:36:45;5.43;;;1.20;;
80257;SDS011;69565;37.974;23.708;2023-06-04T03:39:11;4.70;;;1.50;;
80257;SDS011;69565;37.974;23.708;2023-06-04T03:41:36;5.57;;;1.40;;
80257;SDS011;69565;37.974;23.708;2023-06-04T03:44:02;5.28;;;1.20;;
80257;SDS011;69565;37.974;23.708;2023-06-04T03:46:28;10.07;;;1.42;;
80257;SDS011;69565;37.974;23.708;2023-06-04T03:48:56;8.32;;;1.60;;
80257;SDS011;69565;37.974;23.708;2023-06-04T03:51:22;5.68;;;1.60;;
80257;SDS011;69565;37.974;23.708;2023-06-04T03:53:48;4.10;;;1.45;;
80257;SDS011;69565;37.974;23.708;2023-06-04T03:56:14;3.55;;;1.23;;
80257;SDS011;69565;37.974;23.708;2023-06-04T03:58:39;6.00;;;1.60;;
80257;SDS011;69565;37.974;23.708;2023-06-04T04:01:06;5.60;;;1.40;;
80257;SDS011;69565;37.974;23.708;2023-06-04T04:03:33;7.57;;;1.63;;
80257;SDS011;69565;37.974;23.708;2023-06-04T04:06:00;6.40;;;1.60;;
80257;SDS011;69565;37.974;23.708;2023-06-04T04:08:25;12.15;;;1.48;;
80257;SDS011;69565;37.974;23.708;2023-06-04T04:10:55;7.45;;;1.70;;
80257;SDS011;69565;37.974;23.708;2023-06-04T04:13:21;5.63;;;1.80;;
80257;SDS011;69565;37.974;23.708;2023-06-04T04:15:46;5.55;;;1.40;;
80257;SDS011;69565;37.974;23.708;2023-06-04T04:18:12;5.45;;;1.30;;
80257;SDS011;69565;37.974;23.708;2023-06-04T04:20:38;13.65;;;1.75;;
80257;SDS011;69565;37.974;23.708;2023-06-04T04:23:04;11.40;;;1.65;;
80257;SDS011;69565;37.974;23.708;2023-06-04T04:25:31;7.57;;;1.52;;
80257;SDS011;69565;37.974;23.708;2023-06-04T04:27:57;8.32;;;1.35;;
80257;SDS011;69565;37.974;23.708;2023-06-04T04:30:25;6.07;;;1.50;;
80257;SDS011;69565;37.974;23.708;2023-06-04T04:32:51;7.47;;;1.60;;
80257;SDS011;69565;37.974;23.708;2023-06-04T04:35:17;7.20;;;1.38;;
80257;SDS011;69565;37.974;23.708;2023-06-04T04:37:43;11.98;;;1.70;;
80257;SDS011;69565;37.974;23.708;2023-06-04T04:40:10;4.65;;;1.38;;
80257;SDS011;69565;37.974;23.708;2023-06-04T04:42:37;4.88;;;2.03;;
80257;SDS011;69565;37.974;23.708;2023-06-04T04:45:03;7.43;;;1.60;;
80257;SDS011;69565;37.974;23.708;2023-06-04T04:47:29;12.45;;;1.75;;
80257;SDS011;69565;37.974;23.708;2023-06-04T04:49:55;12.57;;;1.80;;
80257;SDS011;69565;37.974;23.708;2023-06-04T04:52:20;8.32;;;1.73;;
80257;SDS011;69565;37.974;23.708;2023-06-04T04:54:46;7.18;;;1.40;;
80257;SDS011;69565;37.974;23.708;2023-06-04T04:57:12;4.03;;;1.55;;
80257;SDS011;69565;37.974;23.708;2023-06-04T04:59:37;4.95;;;1.58;;
80257;SDS011;69565;37.974;23.708;2023-06-04T05:02:03;4.85;;;1.50;;
80257;SDS011;69565;37.974;23.708;2023-06-04T05:04:30;6.93;;;1.50;;
80257;SDS011;69565;37.974;23.708;2023-06-04T05:06:55;11.27;;;1.40;;
80257;SDS011;69565;37.974;23.708;2023-06-04T05:09:21;2.60;;;1.48;;
80257;SDS011;69565;37.974;23.708;2023-06-04T05:11:47;6.45;;;1.20;;
80257;SDS011;69565;37.974;23.708;2023-06-04T05:14:12;6.68;;;1.20;;
80257;SDS011;69565;37.974;23.708;2023-06-04T05:16:38;3.80;;;1.23;;
80257;SDS011;69565;37.974;23.708;2023-06-04T05:19:06;2.92;;;1.40;;
80257;SDS011;69565;37.974;23.708;2023-06-04T05:21:31;9.27;;;1.38;;
80257;SDS011;69565;37.974;23.708;2023-06-04T05:23:57;5.20;;;1.20;;
80257;SDS011;69565;37.974;23.708;2023-06-04T05:26:23;5.13;;;1.27;;
80257;SDS011;69565;37.974;23.708;2023-06-04T05:28:52;6.80;;;1.20;;
80257;SDS011;69565;37.974;23.708;2023-06-04T05:31:18;9.00;;;1.60;;
80257;SDS011;69565;37.974;23.708;2023-06-04T05:33:44;6.75;;;1.20;;
80257;SDS011;69565;37.974;23.708;2023-06-04T05:36:10;4.18;;;1.30;;
80257;SDS011;69565;37.974;23.708;2023-06-04T05:38:37;4.25;;;1.20;;
80257;SDS011;69565;37.974;23.708;2023-06-04T05:41:03;5.43;;;1.27;;
80257;SDS011;69565;37.974;23.708;2023-06-04T05:43:28;4.57;;;1.40;;
80257;SDS011;69565;37.974;23.708;2023-06-04T05:45:54;5.00;;;1.30;;
80257;SDS011;69565;37.974;23.708;2023-06-04T05:48:20;2.97;;;1.20;;
80257;SDS011;69565;37.974;23.708;2023-06-04T05:50:46;6.68;;;1.27;;
80257;SDS011;69565;37.974;23.708;2023-06-04T05:53:12;11.68;;;2.03;;
80257;SDS011;69565;37.974;23.708;2023-06-04T05:55:38;13.27;;;1.23;;
80257;SDS011;69565;37.974;23.708;2023-06-04T05:58:04;4.38;;;1.30;;
80257;SDS011;69565;37.974;23.708;2023-06-04T06:00:29;3.05;;;1.23;;
80257;SDS011;69565;37.974;23.708;2023-06-04T06:02:55;9.40;;;1.30;;
80257;SDS011;69565;37.974;23.708;2023-06-04T06:05:21;2.83;;;1.20;;
80257;SDS011;69565;37.974;23.708;2023-06-04T06:07:47;4.68;;;1.13;;
80257;SDS011;69565;37.974;23.708;2023-06-04T06:10:13;8.00;;;1.10;;
80257;SDS011;69565;37.974;23.708;2023-06-04T06:12:39;3.20;;;1.10;;
80257;SDS011;69565;37.974;23.708;2023-06-04T06:15:05;8.23;;;1.17;;
80257;SDS011;69565;37.974;23.708;2023-06-04T06:17:31;6.47;;;1.17;;
80257;SDS011;69565;37.974;23.708;2023-06-04T06:19:57;5.32;;;1.20;;
80257;SDS011;69565;37.974;23.708;2023-06-04T06:22:23;3.10;;;1.10;;
80257;SDS011;69565;37.974;23.708;2023-06-04T06:24:49;4.72;;;1.13;;
80257;SDS011;69565;37.974;23.708;2023-06-04T06:27:15;1.20;;;0.98;;
80257;SDS011;69565;37.974;23.708;2023-06-04T06:29:41;2.95;;;1.00;;
80257;SDS011;69565;37.974;23.708;2023-06-04T06:32:12;8.50;;;1.13;;
80257;SDS011;69565;37.974;23.708;2023-06-04T06:34:38;3.50;;;1.10;;
80257;SDS011;69565;37.974;23.708;2023-06-04T06:37:03;2.35;;;1.05;;
80257;SDS011;69565;37.974;23.708;2023-06-04T06:39:31;3.85;;;1.00;;
80257;SDS011;69565;37.974;23.708;2023-06-04T06:41:57;1.52;;;1.00;;
80257;SDS011;69565;37.974;23.708;2023-06-04T06:44:23;6.30;;;1.00;;
80257;SDS011;69565;37.974;23.708;2023-06-04T06:46:48;1.38;;;0.90;;
80257;SDS011;69565;37.974;23.708;2023-06-04T06:49:15;4.13;;;1.23;;
80257;SDS011;69565;37.974;23.708;2023-06-04T06:51:40;3.85;;;1.00;;
80257;SDS011;69565;37.974;23.708;2023-06-04T06:54:08;2.92;;;1.00;;
80257;SDS011;69565;37.974;23.708;2023-06-04T06:56:35;3.00;;;1.17;;
80257;SDS011;69565;37.974;23.708;2023-06-04T06:59:00;1.90;;;0.90;;
80257;SDS011;69565;37.974;23.708;2023-06-04T07:01:26;5.57;;;1.00;;
80257;SDS011;69565;37.974;23.708;2023-06-04T07:03:52;2.80;;;0.90;;
80257;SDS011;69565;37.974;23.708;2023-06-04T07:06:18;2.35;;;0.90;;
80257;SDS011;69565;37.974;23.708;2023-06-04T07:08:43;2.97;;;1.00;;
80257;SDS011;69565;37.974;23.708;2023-06-04T07:11:09;2.80;;;0.88;;
80257;SDS011;69565;37.974;23.708;2023-06-04T07:13:38;1.25;;;0.90;;
80257;SDS011;69565;37.974;23.708;2023-06-04T07:16:04;1.90;;;0.90;;
80257;SDS011;69565;37.974;23.708;2023-06-04T07:18:30;2.75;;;1.00;;
80257;SDS011;69565;37.974;23.708;2023-06-04T07:20:56;3.08;;;0.90;;
80257;SDS011;69565;37.974;23.708;2023-06-04T07:23:22;2.03;;;0.90;;
80257;SDS011;69565;37.974;23.708;2023-06-04T07:25:47;1.63;;;0.90;;
80257;SDS011;69565;37.974;23.708;2023-06-04T07:28:13;1.52;;;0.90;;
80257;SDS011;69565;37.974;23.708;2023-06-04T07:30:39;2.20;;;1.00;;
80257;SDS011;69565;37.974;23.708;2023-06-04T07:33:04;1.15;;;0.90;;
80257;SDS011;69565;37.974;23.708;2023-06-04T07:35:31;4.75;;;0.93;;
80257;SDS011;69565;37.974;23.708;2023-06-04T07:37:57;2.08;;;0.90;;
80257;SDS011;69565;37.974;23.708;2023-06-04T07:40:22;3.72;;;0.98;;
80257;SDS011;69565;37.974;23.708;2023-06-04T07:42:48;1.30;;;1.00;;
80257;SDS011;69565;37.974;23.708;2023-06-04T07:45:14;3.05;;;0.90;;
80257;SDS011;69565;37.974;23.708;2023-06-04T07:47:40;1.33;;;0.90;;
80257;SDS011;69565;37.974;23.708;2023-06-04T07:50:07;1.33;;;0.90;;
80257;SDS011;69565;37.974;23.708;2023-06-04T07:52:33;1.20;;;0.90;;
80257;SDS011;69565;37.974;23.708;2023-06-04T07:54:59;2.13;;;0.90;;
80257;SDS011;69565;37.974;23.708;2023-06-04T07:57:26;2.47;;;0.90;;
80257;SDS011;69565;37.974;23.708;2023-06-04T07:59:52;1.25;;;0.93;;
80257;SDS011;69565;37.974;23.708;2023-06-04T08:02:18;2.78;;;1.00;;
80257;SDS011;69565;37.974;23.708;2023-06-04T08:04:46;4.15;;;0.98;;
80257;SDS011;69565;37.974;23.708;2023-06-04T08:07:12;1.25;;;0.90;;
80257;SDS011;69565;37.974;23.708;2023-06-04T08:09:38;1.70;;;0.90;;
80257;SDS011;69565;37.974;23.708;2023-06-04T08:12:04;2.15;;;1.00;;
80257;SDS011;69565;37.974;23.708;2023-06-04T08:14:30;1.52;;;0.90;;
80257;SDS011;69565;37.974;23.708;2023-06-04T08:16:57;1.58;;;1.00;;
80257;SDS011;69565;37.974;23.708;2023-06-04T08:19:23;1.55;;;0.95;;
80257;SDS011;69565;37.974;23.708;2023-06-04T08:21:49;1.63;;;0.90;;
80257;SDS011;69565;37.974;23.708;2023-06-04T08:24:15;3.80;;;0.93;;
80257;SDS011;69565;37.974;23.708;2023-06-04T08:26:41;1.50;;;0.90;;
80257;SDS011;69565;37.974;23.708;2023-06-04T08:29:07;1.35;;;0.90;;
80257;SDS011;69565;37.974;23.708;2023-06-04T08:31:33;1.70;;;0.90;;
80257;SDS011;69565;37.974;23.708;2023-06-04T08:33:59;2.38;;;1.10;;
80257;SDS011;69565;37.974;23.708;2023-06-04T08:36:26;1.20;;;0.90;;
80257;SDS011;69565;37.974;23.708;2023-06-04T08:38:52;2.13;;;1.00;;
80257;SDS011;69565;37.974;23.708;2023-06-04T08:41:28;1.13;;;0.90;;
80257;SDS011;69565;37.974;23.708;2023-06-04T08:43:58;1.80;;;1.00;;
80257;SDS011;69565;37.974;23.708;2023-06-04T08:48:53;4.32;;;1.15;;
80257;SDS011;69565;37.974;23.708;2023-06-04T08:51:21;3.85;;;1.00;;
80257;SDS011;69565;37.974;23.708;2023-06-04T08:53:47;2.58;;;0.98;;
80257;SDS011;69565;37.974;23.708;2023-06-04T08:56:17;1.77;;;1.00;;
80257;SDS011;69565;37.974;23.708;2023-06-04T08:58:44;1.35;;;1.02;;
80257;SDS011;69565;37.974;23.708;2023-06-04T09:01:12;2.42;;;1.05;;
80257;SDS011;69565;37.974;23.708;2023-06-04T09:03:39;2.45;;;1.15;;
80257;SDS011;69565;37.974;23.708;2023-06-04T09:06:06;2.88;;;1.08;;
80257;SDS011;69565;37.974;23.708;2023-06-04T09:08:34;3.05;;;0.90;;
80257;SDS011;69565;37.974;23.708;2023-06-04T09:11:07;6.20;;;1.13;;
80257;SDS011;69565;37.974;23.708;2023-06-04T09:13:35;3.92;;;1.00;;
80257;SDS011;69565;37.974;23.708;2023-06-04T09:16:04;2.22;;;1.10;;
80257;SDS011;69565;37.974;23.708;2023-06-04T09:18:31;2.65;;;1.20;;
80257;SDS011;69565;37.974;23.708;2023-06-04T09:21:04;3.65;;;1.20;;
80257;SDS011;69565;37.974;23.708;2023-06-04T09:23:35;4.35;;;1.10;;
80257;SDS011;69565;37.974;23.708;2023-06-04T09:26:10;6.90;;;1.05;;
80257;SDS011;69565;37.974;23.708;2023-06-04T09:28:43;2.58;;;1.42;;
80257;SDS011;69565;37.974;23.708;2023-06-04T09:31:10;1.63;;;1.08;;
80257;SDS011;69565;37.974;23.708;2023-06-04T09:36:13;4.40;;;1.10;;
80257;SDS011;69565;37.974;23.708;2023-06-04T09:38:39;1.25;;;1.00;;
80257;SDS011;69565;37.974;23.708;2023-06-04T09:41:16;4.80;;;1.40;;
80257;SDS011;69565;37.974;23.708;2023-06-04T09:43:44;2.95;;;1.00;;
80257;SDS011;69565;37.974;23.708;2023-06-04T09:48:40;2.90;;;1.00;;
80257;SDS011;69565;37.974;23.708;2023-06-04T09:51:15;6.22;;;1.10;;
80257;SDS011;69565;37.974;23.708;2023-06-04T09:53:52;3.60;;;1.02;;
80257;SDS011;69565;37.974;23.708;2023-06-04T09:56:20;1.70;;;1.08;;
80257;SDS011;69565;37.974;23.708;2023-06-04T09:58:46;2.72;;;1.10;;
80257;SDS011;69565;37.974;23.708;2023-06-04T10:01:19;2.80;;;1.08;;
80257;SDS011;69565;37.974;23.708;2023-06-04T10:03:46;4.75;;;0.93;;
80257;SDS011;69565;37.974;23.708;2023-06-04T10:06:14;1.20;;;1.00;;
80257;SDS011;69565;37.974;23.708;2023-06-04T10:08:43;2.58;;;1.00;;
80257;SDS011;69565;37.974;23.708;2023-06-04T10:11:10;1.20;;;0.90;;
80257;SDS011;69565;37.974;23.708;2023-06-04T10:13:41;1.30;;;0.90;;
80257;SDS011;69565;37.974;23.708;2023-06-04T10:16:17;1.67;;;0.90;;
80257;SDS011;69565;37.974;23.708;2023-06-04T10:18:45;3.33;;;1.00;;
80257;SDS011;69565;37.974;23.708;2023-06-04T10:21:12;1.65;;;1.00;;
80257;SDS011;69565;37.974;23.708;2023-06-04T10:23:39;1.52;;;0.90;;
80257;SDS011;69565;37.974;23.708;2023-06-04T10:26:09;1.38;;;0.90;;
80257;SDS011;69565;37.974;23.708;2023-06-04T10:28:40;1.80;;;1.00;;
80257;SDS011;69565;37.974;23.708;2023-06-04T10:31:08;1.20;;;0.90;;
80257;SDS011;69565;37.974;23.708;2023-06-04T10:33:34;1.90;;;1.10;;
80257;SDS011;69565;37.974;23.708;2023-06-04T10:36:10;1.45;;;1.00;;
80257;SDS011;69565;37.974;23.708;2023-06-04T10:38:48;2.03;;;0.90;;
80257;SDS011;69565;37.974;23.708;2023-06-04T10:41:15;2.00;;;1.00;;
80257;SDS011;69565;37.974;23.708;2023-06-04T10:43:45;1.30;;;0.90;;
80257;SDS011;69565;37.974;23.708;2023-06-04T10:46:14;1.77;;;1.00;;
80257;SDS011;69565;37.974;23.708;2023-06-04T10:48:48;2.63;;;1.00;;
80257;SDS011;69565;37.974;23.708;2023-06-04T10:51:15;2.97;;;1.08;;
80257;SDS011;69565;37.974;23.708;2023-06-04T10:53:53;1.50;;;1.00;;
80257;SDS011;69565;37.974;23.708;2023-06-04T10:56:26;1.70;;;1.20;;
80257;SDS011;69565;37.974;23.708;2023-06-04T10:58:52;2.78;;;1.20;;
80257;SDS011;69565;37.974;23.708;2023-06-04T11:01:28;3.35;;;1.20;;
80257;SDS011;69565;37.974;23.708;2023-06-04T11:03:55;2.38;;;1.17;;
80257;SDS011;69565;37.974;23.708;2023-06-04T11:06:21;1.95;;;1.25;;
80257;SDS011;69565;37.974;23.708;2023-06-04T11:08:48;3.05;;;1.05;;
80257;SDS011;69565;37.974;23.708;2023-06-04T11:11:14;1.50;;;1.02;;
80257;SDS011;69565;37.974;23.708;2023-06-04T11:13:41;2.10;;;1.30;;
80257;SDS011;69565;37.974;23.708;2023-06-04T11:16:14;2.25;;;1.20;;
80257;SDS011;69565;37.974;23.708;2023-06-04T11:18:53;1.55;;;0.93;;
80257;SDS011;69565;37.974;23.708;2023-06-04T11:21:24;1.83;;;1.10;;
80257;SDS011;69565;37.974;23.708;2023-06-04T11:23:54;3.10;;;1.08;;
80257;SDS011;69565;37.974;23.708;2023-06-04T11:26:22;3.47;;;1.15;;
80257;SDS011;69565;37.974;23.708;2023-06-04T11:28:58;1.50;;;1.30;;
80257;SDS011;69565;37.974;23.708;2023-06-04T11:31:24;3.05;;;1.20;;
80257;SDS011;69565;37.974;23.708;2023-06-04T11:33:50;4.63;;;1.23;;
80257;SDS011;69565;37.974;23.708;2023-06-04T11:36:34;2.20;;;1.10;;
80257;SDS011;69565;37.974;23.708;2023-06-04T11:39:02;2.72;;;1.17;;
80257;SDS011;69565;37.974;23.708;2023-06-04T11:41:31;2.67;;;1.20;;
80257;SDS011;69565;37.974;23.708;2023-06-04T11:44:03;2.58;;;1.23;;
80257;SDS011;69565;37.974;23.708;2023-06-04T11:46:32;3.05;;;1.10;;
80257;SDS011;69565;37.974;23.708;2023-06-04T11:49:00;2.80;;;1.10;;
80257;SDS011;69565;37.974;23.708;2023-06-04T11:51:27;2.15;;;1.20;;
80257;SDS011;69565;37.974;23.708;2023-06-04T11:53:54;2.05;;;1.40;;
80257;SDS011;69565;37.974;23.708;2023-06-04T11:56:23;4.22;;;1.30;;
80257;SDS011;69565;37.974;23.708;2023-06-04T11:58:50;1.73;;;1.25;;
80257;SDS011;69565;37.974;23.708;2023-06-04T12:01:18;3.70;;;1.30;;
80257;SDS011;69565;37.974;23.708;2023-06-04T12:03:45;2.72;;;1.30;;
80257;SDS011;69565;37.974;23.708;2023-06-04T12:08:52;3.08;;;1.25;;
80257;SDS011;69565;37.974;23.708;2023-06-04T12:13:57;3.67;;;1.10;;
80257;SDS011;69565;37.974;23.708;2023-06-04T12:16:28;2.35;;;1.20;;
80257;SDS011;69565;37.974;23.708;2023-06-04T12:19:04;1.63;;;1.35;;
80257;SDS011;69565;37.974;23.708;2023-06-04T12:21:38;1.50;;;1.20;;
80257;SDS011;69565;37.974;23.708;2023-06-04T12:26:36;9.98;;;1.55;;
80257;SDS011;69565;37.974;23.708;2023-06-04T12:29:09;10.70;;;1.60;;
80257;SDS011;69565;37.974;23.708;2023-06-04T12:31:37;9.75;;;1.75;;
80257;SDS011;69565;37.974;23.708;2023-06-04T12:34:03;5.45;;;1.67;;
80257;SDS011;69565;37.974;23.708;2023-06-04T12:36:29;5.85;;;2.45;;
80257;SDS011;69565;37.974;23.708;2023-06-04T12:38:57;8.02;;;2.55;;
80257;SDS011;69565;37.974;23.708;2023-06-04T12:41:24;8.35;;;2.83;;
80257;SDS011;69565;37.974;23.708;2023-06-04T12:43:51;15.95;;;3.10;;
80257;SDS011;69565;37.974;23.708;2023-06-04T12:46:17;8.15;;;2.80;;
80257;SDS011;69565;37.974;23.708;2023-06-04T12:48:42;10.93;;;2.83;;
80257;SDS011;69565;37.974;23.708;2023-06-04T12:51:08;8.85;;;2.58;;
80257;SDS011;69565;37.974;23.708;2023-06-04T12:53:43;9.15;;;2.42;;
80257;SDS011;69565;37.974;23.708;2023-06-04T12:56:09;8.15;;;2.35;;
80257;SDS011;69565;37.974;23.708;2023-06-04T12:58:35;8.48;;;2.13;;
80257;SDS011;69565;37.974;23.708;2023-06-04T13:01:02;9.48;;;2.83;;
80257;SDS011;69565;37.974;23.708;2023-06-04T13:03:29;7.63;;;2.28;;
80257;SDS011;69565;37.974;23.708;2023-06-04T13:05:55;10.85;;;2.63;;
80257;SDS011;69565;37.974;23.708;2023-06-04T13:08:22;9.85;;;2.90;;
80257;SDS011;69565;37.974;23.708;2023-06-04T13:10:48;8.23;;;3.40;;
80257;SDS011;69565;37.974;23.708;2023-06-04T13:13:15;8.52;;;3.20;;
80257;SDS011;69565;37.974;23.708;2023-06-04T13:15:42;10.68;;;3.05;;
80257;SDS011;69565;37.974;23.708;2023-06-04T13:18:08;9.40;;;2.30;;
80257;SDS011;69565;37.974;23.708;2023-06-04T13:20:39;7.90;;;3.13;;
80257;SDS011;69565;37.974;23.708;2023-06-04T13:23:05;9.87;;;3.67;;
80257;SDS011;69565;37.974;23.708;2023-06-04T13:25:31;7.40;;;2.97;;
80257;SDS011;69565;37.974;23.708;2023-06-04T13:28:03;6.40;;;2.65;;
80257;SDS011;69565;37.974;23.708;2023-06-04T13:30:29;8.15;;;2.70;;
80257;SDS011;69565;37.974;23.708;2023-06-04T13:32:55;6.97;;;2.00;;
80257;SDS011;69565;37.974;23.708;2023-06-04T13:35:23;10.32;;;2.72;;
80257;SDS011;69565;37.974;23.708;2023-06-04T13:37:49;6.95;;;2.00;;
80257;SDS011;69565;37.974;23.708;2023-06-04T13:40:15;6.07;;;1.98;;
80257;SDS011;69565;37.974;23.708;2023-06-04T13:42:41;10.13;;;2.05;;
80257;SDS011;69565;37.974;23.708;2023-06-04T13:45:08;5.90;;;2.13;;
80257;SDS011;69565;37.974;23.708;2023-06-04T13:47:34;4.95;;;1.98;;
80257;SDS011;69565;37.974;23.708;2023-06-04T13:50:00;7.82;;;1.50;;
80257;SDS011;69565;37.974;23.708;2023-06-04T13:52:25;11.52;;;1.88;;
80257;SDS011;69565;37.974;23.708;2023-06-04T13:54:53;4.80;;;1.70;;
80257;SDS011;69565;37.974;23.708;2023-06-04T13:57:19;4.60;;;1.38;;
80257;SDS011;69565;37.974;23.708;2023-06-04T13:59:45;5.53;;;1.58;;
80257;SDS011;69565;37.974;23.708;2023-06-04T14:02:11;5.22;;;1.50;;
80257;SDS011;69565;37.974;23.708;2023-06-04T14:04:37;2.58;;;1.20;;
80257;SDS011;69565;37.974;23.708;2023-06-04T14:07:02;5.88;;;1.17;;
80257;SDS011;69565;37.974;23.708;2023-06-04T14:09:30;3.47;;;1.83;;
80257;SDS011;69565;37.974;23.708;2023-06-04T14:11:56;2.65;;;1.15;;
80257;SDS011;69565;37.974;23.708;2023-06-04T14:14:21;5.03;;;1.40;;
80257;SDS011;69565;37.974;23.708;2023-06-04T14:16:47;2.90;;;1.15;;
80257;SDS011;69565;37.974;23.708;2023-06-04T14:19:13;5.05;;;1.10;;
80257;SDS011;69565;37.974;23.708;2023-06-04T14:21:40;4.03;;;1.10;;
80257;SDS011;69565;37.974;23.708;2023-06-04T14:24:06;3.17;;;1.10;;
80257;SDS011;69565;37.974;23.708;2023-06-04T14:26:34;3.65;;;0.98;;
80257;SDS011;69565;37.974;23.708;2023-06-04T14:29:00;1.60;;;1.00;;
80257;SDS011;69565;37.974;23.708;2023-06-04T14:31:26;5.90;;;1.10;;
80257;SDS011;69565;37.974;23.708;2023-06-04T14:33:52;5.50;;;1.13;;
80257;SDS011;69565;37.974;23.708;2023-06-04T14:36:18;5.82;;;1.00;;
80257;SDS011;69565;37.974;23.708;2023-06-04T14:38:44;6.18;;;1.02;;
80257;SDS011;69565;37.974;23.708;2023-06-04T14:41:10;2.67;;;1.00;;
80257;SDS011;69565;37.974;23.708;2023-06-04T14:43:36;3.70;;;0.98;;
80257;SDS011;69565;37.974;23.708;2023-06-04T14:46:01;1.55;;;0.98;;
80257;SDS011;69565;37.974;23.708;2023-06-04T14:48:27;6.72;;;1.00;;
80257;SDS011;69565;37.974;23.708;2023-06-04T14:50:53;6.28;;;0.98;;
80257;SDS011;69565;37.974;23.708;2023-06-04T14:53:20;4.15;;;1.10;;